Aktuální počasí v Česku a ve světě - METAR

Seznam meteostanic umístěných nejčasteji na letišti v ČR a ve světě

Vyhledat místa podle abecedy:
A B C D E F G H I J K L M N O P Q R S T U V W X Y Z

Filtrovat:

ID stanice:
a/nebo
Název místa (fulltext):
 
Místo (ID)Naposledy načteno 
Náměšť nad Oslavou (Namest n/O) 01.12.2020 04:00 UTC Zobrazit data
Místo: Náměšť nad Oslavou
Teplota: -3 °C (pocitová: -12.5 °C)
Vítr: 4 m/s z(e) 120°
Počasí: zataženo
Dohlednost: 1500 m
Zákl. oblačnosti: 8/8 60 m
Vlhkost: 100%
N'Djamena (FTTJ) 01.12.2020 04:00 UTC Zobrazit METAR
FTTJ 010400Z 01006KT 8000 NSC 19/M01 Q1012 NOSIG
Nairobi (HKJK) 30.11.2020 20:00 UTC Zobrazit METAR
HKJK 302000Z 00000KT CAVOK 17/16
Nantes/ Atlantique (LFRS) 01.12.2020 05:00 UTC Zobrazit METAR
LFRS 010500Z AUTO 30007KT 5000 -RA BR FEW007 SCT028 BKN035 09/08 Q1024 TEMPO BKN008
Nassau (MYNN) 01.12.2020 05:00 UTC Zobrazit METAR
MYNN 010500Z 23004KT 9999 FEW025 SCT180 23/19 A2998
Nauru (ANAU) Zatím nenačteno  
Nausori (NFNA) 01.12.2020 05:00 UTC Zobrazit METAR
NFNA 010500Z 11008KT 080V150 9999 FEW028 SCT130 29/20 Q1012
New York (KNYC) 01.12.2020 04:51 UTC Zobrazit METAR
KNYC 010451Z AUTO 19004KT 10SM FEW013 16/13 A2947 RMK AO2 SLP969 T01560133 401720100 $
Newcastle (EGNT) 01.12.2020 01:50 UTC Zobrazit METAR
EGNT 010150Z AUTO 32011KT 9999 SCT033/// 03/M00 Q1024
Niamey (DRRN) 01.12.2020 05:00 UTC Zobrazit METAR
DRRN 010500Z 34004KT 8000 NSC 22/06 Q1012 NOSIG
Nice/ Cote D'Azur (LFMN) 01.12.2020 05:13 UTC Zobrazit METAR
LFMN 010513Z 33008KT 9999 FEW028 SCT260 10/05 Q1016 NOSIG
Niue Island (NIUE) 01.12.2020 05:00 UTC Zobrazit METAR
NIUE 010500Z AUTO 12008KT // 26/23 Q1013
Nizhny Novgorod (UWGG) 13.10.2017 15:00 UTC Zobrazit METAR
UWGG 131500Z 9000 NSC 10/07 Q1006 R18R/290050 NOSIG RMK QFE747
North Caicos I. (MBNC) Zatím nenačteno  
Nouakchott (GQNN) 23.06.2016 11:00 UTC Zobrazit METAR
GQNN 231100Z 23009KT 180V250 7000 BKN010 25/18 Q1013 NOSIG
Noumea (NWWM) Zatím nenačteno  
Nuku'alofa (NFTF) 01.12.2020 05:00 UTC Zobrazit METAR
NFTF 010500Z 12008KT 9999 FEW015 26/22 Q1014
Reklama


Další české internetové stránky (nejen) o počasí najdete v katalogu TOPlist - weby o počasí nebo vyhledejte na internetu, co jste tu na 🌞 Slunečnu ⛅ zatím nenašli:
⭐ Přidat Slunečno.cz do oblíbených | 🏠 Nastavit Slunečno.cz jako HOMEPAGE

⬆️ Posunout stránku nahoru ⬆️
Reklama